Victoria International Airport
CYYJ : rendu visible

Aérodrome :











RETROUVEZ-NOUS SUR...

 
LOGIN :

S'inscrire | Disclaimer

   EN    FR    IT 

 









Légende :    VFR   VFR Marginal   IFR   IFR Intensif   IFR Très Intensif
Visi : 
Plafond : 
>= 8 km
>= 3000ft
5 à 8 km
1000 à 3000 ft
1500m à 5 km
500 à 1000 ft
800 à 1500m
200 à 500 ft
< 800m
< 200 ft
Symboles :   Orages  Brouillard  Fortes neiges  Fortes précipitations  Vent > 20 kt






- Altitude de l'aérodrome : 63 ft
- Code IATA : YYJ


CYYJ - Victoria International

DERNIER METAR :
  • 081200Z 26002KT 30SM FEW250 02/02 A3033 RMK CI1 SLP272

METARs EXPIRÉS :
  • 081100Z 27005KT 30SM FEW250 03/03 A3032 RMK CI1 CI TR SLP269
  • 081000Z 25003KT 30SM SKC 04/04 A3032 RMK SLP268
  • 080940Z 24004KT 30SM FEW250 02/02 A3032 RMK CI1 CI TR SLP268

TAF TAF CYYJ
Valide du 08 à 12h jusqu'au 09 à 12h UTC


081138Z 0812/0912 27006KT P6SM FEW240
FM081900 08005KT P6SM FEW200
BECMG 0903/0905 26006KT RMK NXT FCST BY 081800Z



MET'MAP, la Météo Aéronautique d'un coup d'oeil ! - Copyright ORBIFLY Décembre 2007 - Disclaimer

ORBIFLY MET'MAP TEAM :

Programmation & Développement : Alexandra Zaïnal
Sur une idée originale de : Baudouin d'Aumeries
Assistance à la programmation : Marc-Olivier Méhu
Soutien technique & logistique : Manuel Goepfert

Contact : metmap@orbifly.com




SOURCES & CREDITS :

   NOAA       Earth
Advisory